createdAt,value
2023-02-11T00:01:37.192Z,23.80
2023-02-11T00:04:07.050Z,20.80
2023-02-11T00:06:36.488Z,22.50
2023-02-11T00:09:05.888Z,23.80
2023-02-11T00:11:34.889Z,22.50
2023-02-11T00:14:06.117Z,22.50
2023-02-11T00:16:34.854Z,20.20
2023-02-11T00:19:06.595Z,18.00
2023-02-11T00:21:35.403Z,25.20
2023-02-11T00:24:04.558Z,22.40
2023-02-11T00:26:35.441Z,21.00
2023-02-11T00:29:06.350Z,21.50
2023-02-11T00:31:35.142Z,18.60
2023-02-11T00:34:03.812Z,23.40
2023-02-11T00:41:14.010Z,22.70
2023-02-11T00:43:42.942Z,21.00
2023-02-11T00:46:12.143Z,24.90
2023-02-11T00:48:41.009Z,25.30
2023-02-11T00:51:10.173Z,22.10
2023-02-11T00:53:39.068Z,25.90
2023-02-11T00:56:08.251Z,24.90
2023-02-11T00:58:37.559Z,24.90
2023-02-11T01:01:06.564Z,25.50
2023-02-11T01:03:35.516Z,24.90
2023-02-11T01:06:04.742Z,24.40
2023-02-11T01:08:33.205Z,24.10
2023-02-11T01:11:06.100Z,22.50
2023-02-11T01:14:34.292Z,21.90
2023-02-11T01:21:20.608Z,24.00
2023-02-11T01:23:49.109Z,22.00
2023-02-11T01:26:17.594Z,23.30
2023-02-11T01:28:46.472Z,24.10
2023-02-11T01:31:14.844Z,22.60
2023-02-11T01:33:43.743Z,24.10
2023-02-11T01:36:13.350Z,25.00
2023-02-11T01:38:42.049Z,25.40
2023-02-11T01:41:13.482Z,22.70
2023-02-11T01:43:48.219Z,23.20
2023-02-11T01:46:37.746Z,22.90
2023-02-11T01:49:10.832Z,23.30
2023-02-11T01:51:48.581Z,23.00
2023-02-11T01:54:41.123Z,23.80
2023-02-11T01:57:22.729Z,23.90
2023-02-11T02:00:13.312Z,23.20
2023-02-11T02:02:52.843Z,22.80
2023-02-11T02:05:43.756Z,22.50
2023-02-11T02:08:22.273Z,23.20
2023-02-11T02:10:56.695Z,22.70
2023-02-11T02:13:26.162Z,21.00
2023-02-11T02:15:57.523Z,22.60
2023-02-11T02:18:49.268Z,24.40
2023-02-11T02:21:46.119Z,24.30
2023-02-11T02:24:39.792Z,22.30
2023-02-11T02:27:46.324Z,23.00
2023-02-11T02:30:39.056Z,21.00
2023-02-11T02:33:23.233Z,21.20
2023-02-11T02:36:13.768Z,22.50
2023-02-11T02:38:58.325Z,23.00
2023-02-11T02:41:32.671Z,21.50
2023-02-11T02:44:02.004Z,21.00
2023-02-11T02:46:33.454Z,22.40
2023-02-11T02:49:02.415Z,24.20
2023-02-11T02:51:39.880Z,25.20
2023-02-11T02:54:17.579Z,22.70
2023-02-11T02:57:18.231Z,23.50
2023-02-11T02:59:53.192Z,23.80
2023-02-11T03:02:37.492Z,22.20
2023-02-11T03:05:22.006Z,24.40
2023-02-11T03:08:09.368Z,23.20
2023-02-11T03:10:43.497Z,23.80
2023-02-11T03:13:17.305Z,24.70
2023-02-11T03:15:51.929Z,24.00
2023-02-11T03:18:26.308Z,23.30
2023-02-11T03:20:57.239Z,24.80
2023-02-11T03:23:39.975Z,24.00
2023-02-11T03:26:23.429Z,25.20
2023-02-11T03:29:14.745Z,22.30
2023-02-11T03:31:55.182Z,23.40
2023-02-11T03:34:29.009Z,23.50
2023-02-11T03:37:04.658Z,21.80
2023-02-11T03:39:55.320Z,21.70
2023-02-11T03:42:27.637Z,21.50
2023-02-11T03:45:05.452Z,21.80
2023-02-11T03:47:37.375Z,22.00
2023-02-11T03:52:38.428Z,19.60
2023-02-11T03:55:12.619Z,20.60
2023-02-11T03:57:41.468Z,19.70
2023-02-11T04:00:11.603Z,22.30
2023-02-11T04:02:41.002Z,21.40
2023-02-11T04:05:15.915Z,22.70
2023-02-11T04:07:44.605Z,21.30
2023-02-11T04:10:13.286Z,21.30
2023-02-11T04:12:41.769Z,21.40
2023-02-11T04:15:11.083Z,21.20
2023-02-11T04:17:39.657Z,21.30
2023-02-11T04:20:09.584Z,22.30
2023-02-11T04:22:38.455Z,20.30
2023-02-11T04:25:08.093Z,20.80
2023-02-11T04:27:37.269Z,19.60
2023-02-11T04:30:07.721Z,20.80
2023-02-11T04:32:36.135Z,21.50
2023-02-11T04:35:05.368Z,22.00
2023-02-11T04:37:33.980Z,20.80
2023-02-11T04:40:02.918Z,20.40
2023-02-11T04:42:31.733Z,21.90
2023-02-11T04:45:00.421Z,20.80
2023-02-11T04:47:28.797Z,22.10
2023-02-11T04:50:57.294Z,20.60
2023-02-11T04:54:25.575Z,19.60
2023-02-11T04:57:57.861Z,19.70
2023-02-11T05:01:26.159Z,18.80
2023-02-11T05:04:54.616Z,17.80
2023-02-11T05:08:23.011Z,18.90
2023-02-11T05:11:57.269Z,18.40
2023-02-11T05:19:42.683Z,18.10
2023-02-11T05:22:11.533Z,17.90
2023-02-11T05:24:40.214Z,18.00
2023-02-11T05:27:08.901Z,19.40
2023-02-11T05:29:37.692Z,19.70
2023-02-11T05:32:07.608Z,18.60
2023-02-11T05:34:37.112Z,20.40
2023-02-11T05:37:05.836Z,18.70
2023-02-11T05:39:34.376Z,18.80
2023-02-11T05:42:03.060Z,21.10
2023-02-11T05:44:31.588Z,19.70
2023-02-11T05:47:00.135Z,20.60
2023-02-11T05:49:28.913Z,19.90
2023-02-11T05:51:57.504Z,19.70
2023-02-11T05:54:26.415Z,20.50
2023-02-11T05:56:54.869Z,20.90
2023-02-11T05:59:23.454Z,21.70
2023-02-11T06:01:52.135Z,21.70
2023-02-11T06:04:21.030Z,20.70
2023-02-11T06:06:49.612Z,21.20
2023-02-11T06:09:18.096Z,19.30
2023-02-11T06:11:46.872Z,21.70
2023-02-11T06:14:15.404Z,22.50
2023-02-11T06:16:44.053Z,22.10
2023-02-11T06:19:13.038Z,20.30
2023-02-11T06:21:44.147Z,20.90
2023-02-11T06:24:13.570Z,24.90
2023-02-11T06:26:42.275Z,24.30
2023-02-11T06:29:10.762Z,24.50
2023-02-11T06:31:39.963Z,25.10
2023-02-11T06:34:10.693Z,27.20
2023-02-11T06:36:40.057Z,23.30
2023-02-11T06:39:08.786Z,26.00
2023-02-11T06:41:38.083Z,27.90
2023-02-11T06:44:07.307Z,26.70
2023-02-11T06:46:35.877Z,25.60
2023-02-11T06:49:04.446Z,24.90
2023-02-11T06:51:33.339Z,23.90
2023-02-11T06:54:02.087Z,31.00
2023-02-11T06:56:30.621Z,28.30
2023-02-11T06:59:00.134Z,28.40
2023-02-11T07:01:28.921Z,28.20
2023-02-11T07:03:57.488Z,28.50
2023-02-11T07:06:28.220Z,27.80
2023-02-11T07:08:56.847Z,31.50
2023-02-11T07:11:28.010Z,29.90
2023-02-11T07:14:56.540Z,31.20
2023-02-11T07:18:28.615Z,32.50
2023-02-11T07:20:57.404Z,28.20
2023-02-11T07:23:25.759Z,29.60
2023-02-11T07:25:54.162Z,29.10
2023-02-11T07:28:22.849Z,30.50
2023-02-11T07:30:51.354Z,29.70
2023-02-11T07:33:19.812Z,33.50
2023-02-11T07:35:49.279Z,30.30
2023-02-11T07:38:18.011Z,32.30
2023-02-11T07:40:46.481Z,33.80
2023-02-11T07:43:15.372Z,33.30
2023-02-11T07:45:43.920Z,30.80
2023-02-11T07:48:12.439Z,33.20
2023-02-11T07:50:41.140Z,31.40
2023-02-11T07:53:09.810Z,30.60
2023-02-11T07:55:38.291Z,32.90
2023-02-11T07:58:06.980Z,30.70
2023-02-11T08:00:35.503Z,30.60
2023-02-11T08:03:04.556Z,31.90
2023-02-11T08:05:33.550Z,30.30
2023-02-11T08:08:01.805Z,31.10
2023-02-11T08:10:30.308Z,31.80
2023-02-11T08:12:58.895Z,30.40
2023-02-11T08:15:27.441Z,35.40
2023-02-11T08:17:55.858Z,31.40
2023-02-11T08:20:24.745Z,35.40
2023-02-11T08:22:53.204Z,33.50
2023-02-11T08:25:21.609Z,34.10
2023-02-11T08:27:50.265Z,33.30
2023-02-11T08:30:18.771Z,32.80
2023-02-11T08:32:47.766Z,31.50
2023-02-11T08:35:16.663Z,30.90
2023-02-11T08:37:45.444Z,28.20
2023-02-11T08:40:13.874Z,32.70
2023-02-11T08:42:42.644Z,31.30
2023-02-11T08:45:13.001Z,28.10
2023-02-11T08:47:41.531Z,30.40
2023-02-11T08:50:10.351Z,30.30
2023-02-11T08:52:38.951Z,28.50
2023-02-11T08:55:07.686Z,30.70
2023-02-11T08:57:36.373Z,32.10
2023-02-11T09:00:06.047Z,30.00
2023-02-11T09:02:34.632Z,27.00
2023-02-11T09:05:03.357Z,35.00
2023-02-11T09:07:32.423Z,25.90
2023-02-11T09:10:01.154Z,26.70
2023-02-11T09:12:29.721Z,28.00
2023-02-11T09:14:58.987Z,24.90
2023-02-11T09:17:27.344Z,25.00
2023-02-11T09:19:56.191Z,29.20
2023-02-11T09:22:24.775Z,26.90
2023-02-11T09:24:53.259Z,29.40
2023-02-11T09:27:21.955Z,27.70
2023-02-11T09:29:50.979Z,30.70
2023-02-11T09:32:19.428Z,30.20
2023-02-11T09:34:47.908Z,26.40
2023-02-11T09:37:16.795Z,31.80
2023-02-11T09:39:46.403Z,28.90
2023-02-11T09:42:38.236Z,23.80
2023-02-11T09:45:24.532Z,23.90
2023-02-11T09:47:58.304Z,23.80
2023-02-11T09:51:37.983Z,27.50
2023-02-11T09:54:46.377Z,27.00
2023-02-11T09:58:14.490Z,29.10
2023-02-11T10:01:47.703Z,28.20
2023-02-11T10:04:28.426Z,29.80
2023-02-11T10:07:08.337Z,22.70
2023-02-11T10:09:54.998Z,26.30
2023-02-11T10:12:33.028Z,25.30
2023-02-11T10:15:21.584Z,23.00
2023-02-11T10:18:11.259Z,24.80
2023-02-11T10:21:20.091Z,23.30
2023-02-11T10:23:52.665Z,26.50
2023-02-11T10:26:21.559Z,22.70
2023-02-11T10:28:54.205Z,22.10
2023-02-11T10:31:42.897Z,23.50
2023-02-11T10:34:13.550Z,20.70
2023-02-11T10:36:44.708Z,22.70
2023-02-11T10:39:22.115Z,20.90
2023-02-11T10:42:12.662Z,21.30
2023-02-11T10:44:58.169Z,21.40
2023-02-11T10:47:30.991Z,21.10
2023-02-11T10:50:03.875Z,20.30
2023-02-11T10:52:32.560Z,21.50
2023-02-11T10:55:03.244Z,18.60
2023-02-11T10:57:46.887Z,18.30
2023-02-11T11:00:18.622Z,18.20
2023-02-11T11:02:57.846Z,19.70
2023-02-11T11:05:33.286Z,17.90
2023-02-11T11:08:07.105Z,16.80
2023-02-11T11:10:47.168Z,17.40
2023-02-11T11:14:13.672Z,19.60
2023-02-11T11:17:41.995Z,17.30
2023-02-11T11:20:27.792Z,18.90
2023-02-11T11:23:19.920Z,15.50
2023-02-11T11:26:11.243Z,15.70
2023-02-11T11:28:53.751Z,16.80
2023-02-11T11:31:26.391Z,14.50
2023-02-11T11:33:58.299Z,17.20
2023-02-11T11:39:28.019Z,14.80
2023-02-11T11:44:38.505Z,15.90
2023-02-11T11:47:13.840Z,15.80
2023-02-11T11:49:49.240Z,16.80
2023-02-11T11:52:35.245Z,16.20
2023-02-11T11:55:42.366Z,17.90
2023-02-11T11:58:19.040Z,16.10
2023-02-11T12:00:58.479Z,16.20
2023-02-11T12:03:45.326Z,17.10
2023-02-11T12:06:39.995Z,15.70
2023-02-11T12:09:17.804Z,14.00
2023-02-11T12:12:06.754Z,14.50
2023-02-11T12:14:46.497Z,11.80
2023-02-11T12:17:25.943Z,17.70
2023-02-11T12:20:29.848Z,14.10
2023-02-11T12:23:06.730Z,21.40
2023-02-11T12:25:46.806Z,16.40
2023-02-11T12:28:24.942Z,19.50
2023-02-11T12:31:13.288Z,17.80
2023-02-11T12:34:19.299Z,17.60
2023-02-11T12:37:07.925Z,16.40
2023-02-11T12:39:51.884Z,16.00
2023-02-11T12:43:09.845Z,16.40
2023-02-11T12:46:03.117Z,14.60
2023-02-11T12:48:37.844Z,16.40
2023-02-11T12:51:12.359Z,15.30
2023-02-11T12:53:50.994Z,16.90
2023-02-11T12:56:28.780Z,14.60
2023-02-11T12:59:00.873Z,36.40
2023-02-11T13:01:31.781Z,60.60
2023-02-11T13:04:09.589Z,16.50
2023-02-11T13:06:45.159Z,15.10
2023-02-11T13:09:21.537Z,14.10
2023-02-11T13:11:55.056Z,18.80
2023-02-11T13:14:38.337Z,12.70
2023-02-11T13:17:16.721Z,18.90
2023-02-11T13:19:55.811Z,13.10
2023-02-11T13:22:32.564Z,11.30
2023-02-11T13:25:25.204Z,12.60
2023-02-11T13:28:21.163Z,10.40
2023-02-11T13:30:57.909Z,19.00
2023-02-11T13:33:46.456Z,12.90
2023-02-11T13:36:18.353Z,13.40
2023-02-11T13:39:00.024Z,14.20
2023-02-11T13:44:10.900Z,14.50
2023-02-11T13:46:59.972Z,14.70
2023-02-11T13:49:36.716Z,16.40
2023-02-11T13:52:17.411Z,16.30
2023-02-11T13:54:52.340Z,17.10
2023-02-11T13:57:20.921Z,16.40
2023-02-11T13:59:52.744Z,17.70
2023-02-11T14:02:43.376Z,18.70
2023-02-11T14:05:44.357Z,19.10
2023-02-11T14:08:31.653Z,17.30
2023-02-11T14:11:12.808Z,17.70
2023-02-11T14:13:53.363Z,16.90
2023-02-11T14:16:36.893Z,18.70
2023-02-11T14:19:06.926Z,18.50
2023-02-11T14:21:42.599Z,17.80
2023-02-11T14:24:33.983Z,18.10
2023-02-11T14:28:10.896Z,21.80
2023-02-11T14:31:17.862Z,20.60
2023-02-11T14:34:14.431Z,30.30
2023-02-11T14:36:59.420Z,23.40
2023-02-11T14:39:28.134Z,17.80
2023-02-11T14:41:57.191Z,19.20
2023-02-11T14:44:31.687Z,18.40
2023-02-11T14:47:00.682Z,18.20
2023-02-11T14:49:35.222Z,16.30
2023-02-11T14:52:32.185Z,17.00
2023-02-11T14:55:27.795Z,16.30
2023-02-11T14:58:08.916Z,62.70
2023-02-11T15:00:37.662Z,18.80
2023-02-11T15:03:06.246Z,14.70
2023-02-11T15:05:35.258Z,15.10
2023-02-11T15:08:05.677Z,15.50
2023-02-11T15:10:44.084Z,16.20
2023-02-11T15:13:20.661Z,14.10
2023-02-11T15:15:53.261Z,14.20
2023-02-11T15:18:24.645Z,15.50
2023-02-11T15:20:53.515Z,14.70
2023-02-11T15:23:26.252Z,16.50
2023-02-11T15:25:58.316Z,16.60
2023-02-11T15:31:13.825Z,16.20
2023-02-11T15:36:15.615Z,12.70
2023-02-11T15:38:45.000Z,14.80
2023-02-11T15:41:37.438Z,14.60
2023-02-11T15:44:05.988Z,10.90
2023-02-11T15:46:40.236Z,15.10
2023-02-11T15:49:19.414Z,17.10
2023-02-11T15:51:48.364Z,16.60
2023-02-11T15:59:08.664Z,15.20
2023-02-11T16:02:36.769Z,14.30
2023-02-11T16:09:24.121Z,11.10
2023-02-11T16:12:12.778Z,16.90
2023-02-11T16:14:41.461Z,17.00
2023-02-11T16:17:24.681Z,12.30
2023-02-11T16:19:54.497Z,14.30
2023-02-11T16:22:26.749Z,12.80
2023-02-11T16:24:58.934Z,12.10
2023-02-11T16:27:41.346Z,14.30
2023-02-11T16:30:33.228Z,12.20
2023-02-11T16:33:01.967Z,13.30
2023-02-11T16:35:30.757Z,13.60
2023-02-11T16:37:59.232Z,12.40
2023-02-11T16:40:28.124Z,15.00
2023-02-11T16:42:56.710Z,16.30
2023-02-11T16:45:25.204Z,18.10
2023-02-11T16:47:53.775Z,15.20
2023-02-11T16:50:25.114Z,16.90
2023-02-11T16:52:54.010Z,14.60
2023-02-11T16:55:22.604Z,14.60
2023-02-11T16:57:51.191Z,15.90
2023-02-11T17:00:20.481Z,15.30
2023-02-11T17:02:49.020Z,13.80
2023-02-11T17:05:23.101Z,14.40
2023-02-11T17:08:51.365Z,14.40
2023-02-11T17:12:20.058Z,10.90
2023-02-11T17:15:48.704Z,10.70
2023-02-11T17:22:11.961Z,11.90
2023-02-11T17:24:40.413Z,15.10
2023-02-11T17:27:11.427Z,14.70
2023-02-11T17:29:40.238Z,15.30
2023-02-11T17:32:08.802Z,16.30
2023-02-11T17:34:37.219Z,15.90
2023-02-11T17:37:09.682Z,16.70
2023-02-11T17:39:40.234Z,16.40
2023-02-11T17:42:08.995Z,14.50
2023-02-11T17:44:38.260Z,12.10
2023-02-11T17:47:07.903Z,16.80
2023-02-11T17:49:36.593Z,19.00
2023-02-11T17:52:05.488Z,13.40
2023-02-11T17:54:34.178Z,18.30
2023-02-11T17:57:02.857Z,16.20
2023-02-11T17:59:35.766Z,20.00
2023-02-11T18:02:05.661Z,19.10
2023-02-11T18:04:34.085Z,20.10
2023-02-11T18:07:03.044Z,18.70
2023-02-11T18:09:36.125Z,18.10
2023-02-11T18:12:05.785Z,19.20
2023-02-11T18:14:34.514Z,20.30
2023-02-11T18:17:03.195Z,15.00
2023-02-11T18:19:33.492Z,22.40
2023-02-11T18:22:02.935Z,18.30
2023-02-11T18:24:31.827Z,20.90
2023-02-11T18:27:00.509Z,23.00
2023-02-11T18:29:29.892Z,21.10
2023-02-11T18:31:58.637Z,21.10
2023-02-11T18:34:27.386Z,20.50
2023-02-11T18:36:57.181Z,23.00
2023-02-11T18:39:26.704Z,18.10
2023-02-11T18:41:57.101Z,21.90
2023-02-11T18:44:27.522Z,19.60
2023-02-11T18:46:56.147Z,18.40
2023-02-11T18:49:24.628Z,25.70
2023-02-11T18:51:53.316Z,26.20
2023-02-11T18:54:22.305Z,24.30
2023-02-11T18:56:50.907Z,18.50
2023-02-11T18:59:19.381Z,21.30
2023-02-11T19:01:48.059Z,17.30
2023-02-11T19:04:20.572Z,21.90
2023-02-11T19:06:50.160Z,25.40
2023-02-11T19:09:20.400Z,21.90
2023-02-11T19:11:52.606Z,30.20
2023-02-11T19:14:28.256Z,27.00
2023-02-11T19:16:59.253Z,19.50
2023-02-11T19:19:30.181Z,27.90
2023-02-11T19:22:00.385Z,22.60
2023-02-11T19:24:30.117Z,27.50
2023-02-11T19:27:02.167Z,20.80
2023-02-11T19:29:35.410Z,24.40
2023-02-11T19:32:09.103Z,29.20
2023-02-11T19:34:41.528Z,23.70
2023-02-11T19:37:13.073Z,25.30
2023-02-11T19:39:42.711Z,34.00
2023-02-11T19:42:12.202Z,31.90
2023-02-11T19:44:40.988Z,25.10
2023-02-11T19:47:10.706Z,26.00
2023-02-11T19:49:39.176Z,27.30
2023-02-11T19:52:07.733Z,19.70
2023-02-11T19:54:38.366Z,27.20
2023-02-11T19:57:06.982Z,29.20
2023-02-11T19:59:35.875Z,28.40
2023-02-11T20:02:04.637Z,25.30
2023-02-11T20:04:33.545Z,29.70
2023-02-11T20:07:02.236Z,29.20
2023-02-11T20:09:32.046Z,24.60
2023-02-11T20:12:00.751Z,30.20
2023-02-11T20:14:29.526Z,29.10
2023-02-11T20:16:58.105Z,23.00
2023-02-11T20:19:28.124Z,28.20
2023-02-11T20:21:57.509Z,27.70
2023-02-11T20:24:26.620Z,38.50
2023-02-11T20:26:58.497Z,31.10
2023-02-11T20:29:29.702Z,29.40
2023-02-11T20:31:58.315Z,30.80
2023-02-11T20:34:26.997Z,30.00
2023-02-11T20:36:56.404Z,34.60
2023-02-11T20:39:26.103Z,32.10
2023-02-11T20:41:55.305Z,31.50
2023-02-11T20:44:24.795Z,31.70
2023-02-11T20:46:56.760Z,37.70
2023-02-11T20:49:25.461Z,36.50
2023-02-11T20:52:53.534Z,31.20
2023-02-11T20:56:22.087Z,31.50
2023-02-11T20:59:55.641Z,26.20
2023-02-11T21:03:24.298Z,30.80
2023-02-11T21:06:13.704Z,22.20
2023-02-11T21:08:42.493Z,28.00
2023-02-11T21:11:11.280Z,21.80
2023-02-11T21:13:41.330Z,20.20
2023-02-11T21:16:14.820Z,26.40
2023-02-11T21:18:44.208Z,18.40
2023-02-11T21:21:12.794Z,20.00
2023-02-11T21:23:41.588Z,23.40
2023-02-11T21:26:10.683Z,18.80
2023-02-11T21:28:41.047Z,21.50
2023-02-11T21:32:09.673Z,16.20
2023-02-11T21:35:38.188Z,19.50
2023-02-11T21:39:06.675Z,18.00
2023-02-11T21:42:34.953Z,16.60
2023-02-11T21:45:03.707Z,19.20
2023-02-11T21:48:31.903Z,17.50
2023-02-11T21:52:00.124Z,18.30
2023-02-11T21:55:28.902Z,16.60
2023-02-11T21:58:57.188Z,19.40
2023-02-11T22:02:25.576Z,19.50
2023-02-11T22:05:54.296Z,16.90
2023-02-11T22:09:22.858Z,15.90
2023-02-11T22:16:43.437Z,20.90
2023-02-11T22:19:21.110Z,18.70
2023-02-11T22:21:50.247Z,23.60
2023-02-11T22:24:18.867Z,24.70
2023-02-11T22:26:47.350Z,24.00
2023-02-11T22:29:16.203Z,26.70
2023-02-11T22:31:44.851Z,25.60
2023-02-11T22:34:13.606Z,26.30
2023-02-11T22:36:42.393Z,21.50
2023-02-11T22:39:16.252Z,23.60
2023-02-11T22:41:46.216Z,24.60
2023-02-11T22:44:17.430Z,24.20
2023-02-11T22:46:46.352Z,25.80
2023-02-11T22:49:16.471Z,23.70
2023-02-11T22:51:45.566Z,24.00
2023-02-11T22:54:16.404Z,24.10
2023-02-11T22:56:45.707Z,24.10
2023-02-11T22:59:15.930Z,25.00
2023-02-11T23:01:45.410Z,23.70
2023-02-11T23:04:17.354Z,25.60
2023-02-11T23:06:47.813Z,25.20
2023-02-11T23:09:16.508Z,24.50
2023-02-11T23:11:45.095Z,24.50
2023-02-11T23:14:13.898Z,25.80
2023-02-11T23:16:42.489Z,26.60
2023-02-11T23:19:11.490Z,24.80
2023-02-11T23:22:39.848Z,26.00
2023-02-11T23:26:08.336Z,23.80
2023-02-11T23:29:36.780Z,22.30
2023-02-11T23:37:22.203Z,20.30
2023-02-11T23:40:50.402Z,21.10
2023-02-11T23:44:18.688Z,22.10
2023-02-11T23:47:46.792Z,22.90
2023-02-11T23:51:19.276Z,15.10
2023-02-11T23:54:47.551Z,26.90
2023-02-11T23:58:16.142Z,25.60
